sensor_id;sensor_type;location;lat;lon;timestamp;pressure;altitude;pressure_sealevel;temperature;humidity
68793;BME280;55778;54.346;10.210;2023-02-22T00:01:41;101252.56;;;5.49;100.00
68793;BME280;55778;54.346;10.210;2023-02-22T00:04:38;101256.00;;;5.51;100.00
68793;BME280;55778;54.346;10.210;2023-02-22T00:07:06;101257.50;;;5.42;100.00
68793;BME280;55778;54.346;10.210;2023-02-22T00:09:32;101255.97;;;5.38;100.00
68793;BME280;55778;54.346;10.210;2023-02-22T00:11:57;101258.56;;;5.40;100.00
68793;BME280;55778;54.346;10.210;2023-02-22T00:14:23;101257.91;;;5.36;100.00
68793;BME280;55778;54.346;10.210;2023-02-22T00:16:52;101258.41;;;5.29;100.00
68793;BME280;55778;54.346;10.210;2023-02-22T00:19:20;101258.41;;;5.29;100.00
68793;BME280;55778;54.346;10.210;2023-02-22T00:21:50;101254.13;;;5.39;100.00
68793;BME280;55778;54.346;10.210;2023-02-22T00:24:17;101260.91;;;5.32;100.00
68793;BME280;55778;54.346;10.210;2023-02-22T00:26:51;101259.66;;;5.23;100.00
68793;BME280;55778;54.346;10.210;2023-02-22T00:29:16;101259.66;;;5.23;100.00
68793;BME280;55778;54.346;10.210;2023-02-22T00:31:42;101254.47;;;5.20;100.00
68793;BME280;55778;54.346;10.210;2023-02-22T00:34:07;101258.13;;;5.19;100.00
68793;BME280;55778;54.346;10.210;2023-02-22T00:36:33;101252.13;;;5.28;100.00
68793;BME280;55778;54.346;10.210;2023-02-22T00:38:58;101249.88;;;5.35;100.00
68793;BME280;55778;54.346;10.210;2023-02-22T00:41:24;101245.88;;;5.54;100.00
68793;BME280;55778;54.346;10.210;2023-02-22T00:43:49;101246.56;;;5.44;100.00
68793;BME280;55778;54.346;10.210;2023-02-22T00:46:14;101249.28;;;5.44;100.00
68793;BME280;55778;54.346;10.210;2023-02-22T00:48:40;101247.13;;;5.75;100.00
68793;BME280;55778;54.346;10.210;2023-02-22T00:51:05;101244.97;;;5.80;100.00
68793;BME280;55778;54.346;10.210;2023-02-22T00:53:30;101244.47;;;5.61;100.00
68793;BME280;55778;54.346;10.210;2023-02-22T00:55:56;101253.66;;;5.59;100.00
68793;BME280;55778;54.346;10.210;2023-02-22T00:58:21;101246.56;;;5.44;100.00
68793;BME280;55778;54.346;10.210;2023-02-22T01:00:48;101236.34;;;5.49;100.00
68793;BME280;55778;54.346;10.210;2023-02-22T01:03:16;101240.00;;;5.48;100.00
68793;BME280;55778;54.346;10.210;2023-02-22T01:05:41;101242.16;;;5.69;100.00
68793;BME280;55778;54.346;10.210;2023-02-22T01:08:08;101237.16;;;5.76;100.00
68793;BME280;55778;54.346;10.210;2023-02-22T01:10:35;101239.44;;;5.69;100.00
68793;BME280;55778;54.346;10.210;2023-02-22T01:13:01;101238.91;;;5.77;100.00
68793;BME280;55778;54.346;10.210;2023-02-22T01:15:34;101243.69;;;5.59;100.00
68793;BME280;55778;54.346;10.210;2023-02-22T01:18:00;101236.00;;;5.53;100.00
68793;BME280;55778;54.346;10.210;2023-02-22T01:20:27;101237.28;;;5.48;100.00
68793;BME280;55778;54.346;10.210;2023-02-22T01:22:56;101227.28;;;5.36;100.00
68793;BME280;55778;54.346;10.210;2023-02-22T01:25:24;101225.78;;;5.32;100.00
68793;BME280;55778;54.346;10.210;2023-02-22T01:27:51;101232.84;;;5.20;100.00
68793;BME280;55778;54.346;10.210;2023-02-22T01:30:20;101234.88;;;5.17;100.00
68793;BME280;55778;54.346;10.210;2023-02-22T01:32:45;101236.41;;;5.21;100.00
68793;BME280;55778;54.346;10.210;2023-02-22T01:35:17;101235.28;;;5.11;100.00
68793;BME280;55778;54.346;10.210;2023-02-22T01:37:43;101224.22;;;5.01;100.00
68793;BME280;55778;54.346;10.210;2023-02-22T01:40:17;101230.66;;;4.99;100.00
68793;BME280;55778;54.346;10.210;2023-02-22T01:42:46;101227.22;;;4.97;100.00
68793;BME280;55778;54.346;10.210;2023-02-22T01:48:00;101217.66;;;5.05;100.00
68793;BME280;55778;54.346;10.210;2023-02-22T01:50:28;101217.66;;;4.91;100.00
68793;BME280;55778;54.346;10.210;2023-02-22T01:52:56;101224.31;;;4.86;100.00
68793;BME280;55778;54.346;10.210;2023-02-22T01:55:22;101222.84;;;4.94;100.00
68793;BME280;55778;54.346;10.210;2023-02-22T01:57:48;101225.34;;;5.11;100.00
68793;BME280;55778;54.346;10.210;2023-02-22T02:00:15;101224.41;;;4.98;100.00
68793;BME280;55778;54.346;10.210;2023-02-22T02:02:46;101222.13;;;4.92;100.00
68793;BME280;55778;54.346;10.210;2023-02-22T02:05:13;101218.44;;;4.93;100.00
68793;BME280;55778;54.346;10.210;2023-02-22T02:07:39;101218.97;;;5.12;100.00
68793;BME280;55778;54.346;10.210;2023-02-22T02:10:12;101213.16;;;5.18;100.00
68793;BME280;55778;54.346;10.210;2023-02-22T02:12:43;101217.50;;;5.21;100.00
68793;BME280;55778;54.346;10.210;2023-02-22T02:15:34;101213.34;;;5.29;100.00
68793;BME280;55778;54.346;10.210;2023-02-22T02:18:03;101221.06;;;5.48;100.00
68793;BME280;55778;54.346;10.210;2023-02-22T02:40:31;101215.81;;;5.59;100.00
68793;BME280;55778;54.346;10.210;2023-02-22T02:48:20;101218.66;;;5.70;100.00
68793;BME280;55778;54.346;10.210;2023-02-22T02:50:48;101219.38;;;5.59;100.00
68793;BME280;55778;54.346;10.210;2023-02-22T02:53:24;101206.59;;;5.75;100.00
68793;BME280;55778;54.346;10.210;2023-02-22T02:55:50;101211.53;;;5.69;100.00
68793;BME280;55778;54.346;10.210;2023-02-22T02:58:21;101207.63;;;5.73;100.00
68793;BME280;55778;54.346;10.210;2023-02-22T03:00:50;101200.13;;;5.51;100.00
68793;BME280;55778;54.346;10.210;2023-02-22T03:11:57;101192.94;;;5.38;100.00
68793;BME280;55778;54.346;10.210;2023-02-22T03:15:21;101196.56;;;5.24;100.00
68793;BME280;55778;54.346;10.210;2023-02-22T03:17:40;101191.34;;;5.21;100.00
68793;BME280;55778;54.346;10.210;2023-02-22T03:20:15;101194.84;;;5.23;100.00
68793;BME280;55778;54.346;10.210;2023-02-22T03:22:57;101192.94;;;5.38;100.00
68793;BME280;55778;54.346;10.210;2023-02-22T03:25:31;101190.22;;;5.38;100.00
68793;BME280;55778;54.346;10.210;2023-02-22T03:28:03;101191.97;;;5.39;100.00
68793;BME280;55778;54.346;10.210;2023-02-22T03:30:52;101184.16;;;5.34;100.00
68793;BME280;55778;54.346;10.210;2023-02-22T03:33:26;101181.75;;;5.30;100.00
68793;BME280;55778;54.346;10.210;2023-02-22T03:36:01;101176.72;;;5.38;100.00
68793;BME280;55778;54.346;10.210;2023-02-22T03:38:31;101176.25;;;5.31;100.00
68793;BME280;55778;54.346;10.210;2023-02-22T03:40:58;101175.31;;;5.32;100.00
68793;BME280;55778;54.346;10.210;2023-02-22T03:43:33;101172.03;;;5.27;100.00
68793;BME280;55778;54.346;10.210;2023-02-22T03:45:59;101177.50;;;5.40;100.00
68793;BME280;55778;54.346;10.210;2023-02-22T03:51:09;101180.41;;;5.37;100.00
68793;BME280;55778;54.346;10.210;2023-02-22T03:53:35;101178.66;;;5.36;100.00
68793;BME280;55778;54.346;10.210;2023-02-22T03:56:03;101186.03;;;5.46;100.00
68793;BME280;55778;54.346;10.210;2023-02-22T03:58:33;101180.84;;;5.43;100.00
68793;BME280;55778;54.346;10.210;2023-02-22T04:00:59;101169.69;;;5.35;100.00
68793;BME280;55778;54.346;10.210;2023-02-22T04:03:25;101177.03;;;5.33;100.00
68793;BME280;55778;54.346;10.210;2023-02-22T04:05:50;101178.97;;;5.31;100.00
68793;BME280;55778;54.346;10.210;2023-02-22T04:08:16;101175.91;;;5.50;100.00
68793;BME280;55778;54.346;10.210;2023-02-22T04:10:41;101174.81;;;5.52;100.00
68793;BME280;55778;54.346;10.210;2023-02-22T04:13:07;101175.91;;;5.50;100.00
68793;BME280;55778;54.346;10.210;2023-02-22T04:15:33;101175.22;;;5.46;100.00
68793;BME280;55778;54.346;10.210;2023-02-22T04:17:58;101167.69;;;5.51;100.00
68793;BME280;55778;54.346;10.210;2023-02-22T04:20:24;101172.88;;;5.54;100.00
68793;BME280;55778;54.346;10.210;2023-02-22T04:22:54;101170.19;;;5.54;100.00
68793;BME280;55778;54.346;10.210;2023-02-22T04:25:21;101176.09;;;5.47;100.00
68793;BME280;55778;54.346;10.210;2023-02-22T04:27:48;101174.72;;;5.54;100.00
68793;BME280;55778;54.346;10.210;2023-02-22T04:30:16;101175.78;;;5.51;100.00
68793;BME280;55778;54.346;10.210;2023-02-22T04:32:41;101181.63;;;5.45;100.00
68793;BME280;55778;54.346;10.210;2023-02-22T04:35:07;101180.19;;;5.40;100.00
68793;BME280;55778;54.346;10.210;2023-02-22T04:37:33;101180.19;;;5.40;100.00
68793;BME280;55778;54.346;10.210;2023-02-22T04:40:03;101178.44;;;5.39;100.00
68793;BME280;55778;54.346;10.210;2023-02-22T04:42:32;101171.25;;;5.25;100.00
68793;BME280;55778;54.346;10.210;2023-02-22T04:44:58;101169.63;;;5.23;100.00
68793;BME280;55778;54.346;10.210;2023-02-22T04:47:23;101173.25;;;5.36;100.00
68793;BME280;55778;54.346;10.210;2023-02-22T04:49:48;101176.94;;;5.35;100.00
68793;BME280;55778;54.346;10.210;2023-02-22T04:52:14;101181.03;;;5.40;100.00
68793;BME280;55778;54.346;10.210;2023-02-22T04:54:40;101176.94;;;5.35;100.00
68793;BME280;55778;54.346;10.210;2023-02-22T04:57:05;101175.13;;;5.48;100.00
68793;BME280;55778;54.346;10.210;2023-02-22T04:59:31;101165.31;;;5.59;100.00
68793;BME280;55778;54.346;10.210;2023-02-22T05:01:57;101172.78;;;5.68;100.00
68793;BME280;55778;54.346;10.210;2023-02-22T05:04:25;101174.66;;;5.80;100.00
68793;BME280;55778;54.346;10.210;2023-02-22T05:06:50;101172.75;;;5.82;100.00
68793;BME280;55778;54.346;10.210;2023-02-22T05:09:16;101176.28;;;5.70;100.00
68793;BME280;55778;54.346;10.210;2023-02-22T05:11:41;101177.25;;;5.69;100.00
68793;BME280;55778;54.346;10.210;2023-02-22T05:14:07;101184.34;;;5.58;100.00
68793;BME280;55778;54.346;10.210;2023-02-22T05:16:32;101178.41;;;5.53;100.00
68793;BME280;55778;54.346;10.210;2023-02-22T05:18:58;101182.94;;;5.52;100.00
68793;BME280;55778;54.346;10.210;2023-02-22T05:21:23;101179.25;;;5.53;100.00
68793;BME280;55778;54.346;10.210;2023-02-22T05:23:49;101168.78;;;5.49;100.00
68793;BME280;55778;54.346;10.210;2023-02-22T05:26:14;101178.13;;;5.43;100.00
68793;BME280;55778;54.346;10.210;2023-02-22T05:28:40;101173.56;;;5.31;100.00
68793;BME280;55778;54.346;10.210;2023-02-22T05:31:05;101168.03;;;5.33;100.00
68793;BME280;55778;54.346;10.210;2023-02-22T05:33:31;101165.22;;;5.22;100.00
68793;BME280;55778;54.346;10.210;2023-02-22T05:35:57;101166.81;;;5.12;100.00
68793;BME280;55778;54.346;10.210;2023-02-22T05:38:22;101165.75;;;5.00;100.00
68793;BME280;55778;54.346;10.210;2023-02-22T05:40:48;101175.94;;;5.09;100.00
68793;BME280;55778;54.346;10.210;2023-02-22T05:43:14;101181.44;;;5.08;100.00
68793;BME280;55778;54.346;10.210;2023-02-22T05:45:40;101180.03;;;5.02;100.00
68793;BME280;55778;54.346;10.210;2023-02-22T05:48:05;101173.44;;;5.06;100.00
68793;BME280;55778;54.346;10.210;2023-02-22T05:50:31;101172.13;;;4.99;100.00
68793;BME280;55778;54.346;10.210;2023-02-22T05:52:57;101169.81;;;5.07;100.00
68793;BME280;55778;54.346;10.210;2023-02-22T05:55:23;101169.53;;;4.98;100.00
68793;BME280;55778;54.346;10.210;2023-02-22T05:57:49;101165.56;;;5.03;100.00
68793;BME280;55778;54.346;10.210;2023-02-22T06:00:21;101168.06;;;5.06;100.00
68793;BME280;55778;54.346;10.210;2023-02-22T06:03:03;101176.31;;;5.17;100.00
68793;BME280;55778;54.346;10.210;2023-02-22T06:05:29;101174.72;;;5.27;100.00
68793;BME280;55778;54.346;10.210;2023-02-22T06:07:56;101179.16;;;5.28;100.00
68793;BME280;55778;54.346;10.210;2023-02-22T06:10:21;101170.75;;;5.33;100.00
68793;BME280;55778;54.346;10.210;2023-02-22T06:12:48;101177.22;;;5.30;100.00
68793;BME280;55778;54.346;10.210;2023-02-22T06:15:17;101179.31;;;5.39;100.00
68793;BME280;55778;54.346;10.210;2023-02-22T06:17:43;101172.50;;;5.34;100.00
68793;BME280;55778;54.346;10.210;2023-02-22T06:20:10;101174.44;;;5.32;100.00
68793;BME280;55778;54.346;10.210;2023-02-22T06:22:36;101171.06;;;5.28;100.00
68793;BME280;55778;54.346;10.210;2023-02-22T06:25:04;101176.66;;;5.25;100.00
68793;BME280;55778;54.346;10.210;2023-02-22T06:27:31;101170.31;;;5.26;100.00
68793;BME280;55778;54.346;10.210;2023-02-22T06:29:58;101166.31;;;5.32;100.00
68793;BME280;55778;54.346;10.210;2023-02-22T06:32:23;101165.66;;;5.28;100.00
68793;BME280;55778;54.346;10.210;2023-02-22T06:34:48;101165.72;;;5.41;100.00
68793;BME280;55778;54.346;10.210;2023-02-22T06:37:14;101164.63;;;5.43;100.00
68793;BME280;55778;54.346;10.210;2023-02-22T06:39:39;101171.69;;;5.46;100.00
68793;BME280;55778;54.346;10.210;2023-02-22T06:42:05;101174.72;;;5.54;100.00
68793;BME280;55778;54.346;10.210;2023-02-22T06:44:30;101166.84;;;5.63;100.00
68793;BME280;55778;54.346;10.210;2023-02-22T06:46:55;101165.56;;;5.69;100.00
68793;BME280;55778;54.346;10.210;2023-02-22T06:49:21;101161.78;;;5.71;100.00
68793;BME280;55778;54.346;10.210;2023-02-22T06:51:47;101161.56;;;5.74;100.00
68793;BME280;55778;54.346;10.210;2023-02-22T06:54:13;101169.53;;;5.90;100.00
68793;BME280;55778;54.346;10.210;2023-02-22T06:56:38;101165.75;;;5.92;100.00
68793;BME280;55778;54.346;10.210;2023-02-22T06:59:04;101166.59;;;6.05;100.00
68793;BME280;55778;54.346;10.210;2023-02-22T07:01:29;101166.28;;;5.97;100.00
68793;BME280;55778;54.346;10.210;2023-02-22T07:03:55;101165.41;;;5.97;100.00
68793;BME280;55778;54.346;10.210;2023-02-22T07:06:21;101163.16;;;6.03;100.00
68793;BME280;55778;54.346;10.210;2023-02-22T07:08:47;101171.91;;;6.07;100.00
68793;BME280;55778;54.346;10.210;2023-02-22T07:11:15;101169.53;;;6.15;100.00
68793;BME280;55778;54.346;10.210;2023-02-22T07:13:41;101164.03;;;6.17;100.00
68793;BME280;55778;54.346;10.210;2023-02-22T07:16:06;101173.00;;;6.30;100.00
68793;BME280;55778;54.346;10.210;2023-02-22T07:18:31;101165.00;;;6.28;100.00
68793;BME280;55778;54.346;10.210;2023-02-22T07:20:57;101165.53;;;6.33;100.00
68793;BME280;55778;54.346;10.210;2023-02-22T07:23:23;101173.22;;;6.27;100.00
68793;BME280;55778;54.346;10.210;2023-02-22T07:25:48;101174.41;;;6.35;100.00
68793;BME280;55778;54.346;10.210;2023-02-22T07:28:14;101173.34;;;6.38;100.00
68793;BME280;55778;54.346;10.210;2023-02-22T07:30:39;101171.38;;;6.40;100.00
68793;BME280;55778;54.346;10.210;2023-02-22T07:33:10;101172.34;;;6.39;100.00
68793;BME280;55778;54.346;10.210;2023-02-22T07:35:41;101174.06;;;6.52;100.00
68793;BME280;55778;54.346;10.210;2023-02-22T07:38:08;101174.38;;;6.60;100.00
68793;BME280;55778;54.346;10.210;2023-02-22T07:40:34;101177.72;;;6.64;100.00
68793;BME280;55778;54.346;10.210;2023-02-22T07:43:13;101180.03;;;6.57;100.00
68793;BME280;55778;54.346;10.210;2023-02-22T07:45:39;101179.44;;;6.65;100.00
68793;BME280;55778;54.346;10.210;2023-02-22T07:48:06;101179.34;;;6.66;100.00
68793;BME280;55778;54.346;10.210;2023-02-22T07:50:32;101178.50;;;6.66;100.00
68793;BME280;55778;54.346;10.210;2023-02-22T07:53:04;101176.84;;;6.63;100.00
68793;BME280;55778;54.346;10.210;2023-02-22T07:55:31;101178.72;;;6.63;100.00
68793;BME280;55778;54.346;10.210;2023-02-22T07:58:02;101179.06;;;6.58;100.00
68793;BME280;55778;54.346;10.210;2023-02-22T08:00:32;101176.53;;;6.68;100.00
68793;BME280;55778;54.346;10.210;2023-02-22T08:02:58;101184.88;;;6.65;100.00
68793;BME280;55778;54.346;10.210;2023-02-22T08:05:25;101181.94;;;6.68;100.00
68793;BME280;55778;54.346;10.210;2023-02-22T08:07:51;101180.00;;;6.70;100.00
68793;BME280;55778;54.346;10.210;2023-02-22T08:10:19;101183.69;;;6.69;100.00
68793;BME280;55778;54.346;10.210;2023-02-22T08:12:45;101181.09;;;6.67;100.00
68793;BME280;55778;54.346;10.210;2023-02-22T08:17:47;101176.63;;;6.66;100.00
68793;BME280;55778;54.346;10.210;2023-02-22T08:20:13;101175.69;;;6.67;100.00
68793;BME280;55778;54.346;10.210;2023-02-22T08:22:38;101178.78;;;6.74;100.00
68793;BME280;55778;54.346;10.210;2023-02-22T08:25:04;101177.72;;;6.76;100.00
68793;BME280;55778;54.346;10.210;2023-02-22T08:27:30;101173.38;;;6.74;100.00
68793;BME280;55778;54.346;10.210;2023-02-22T08:29:58;101165.13;;;6.75;100.00
68793;BME280;55778;54.346;10.210;2023-02-22T08:32:23;101176.19;;;6.72;100.00
68793;BME280;55778;54.346;10.210;2023-02-22T08:34:48;101171.44;;;6.76;100.00
68793;BME280;55778;54.346;10.210;2023-02-22T08:37:15;101172.53;;;6.73;100.00
68793;BME280;55778;54.346;10.210;2023-02-22T08:39:41;101168.19;;;6.71;100.00
68793;BME280;55778;54.346;10.210;2023-02-22T08:42:06;101172.41;;;6.75;100.00
68793;BME280;55778;54.346;10.210;2023-02-22T08:44:34;101168.72;;;6.76;100.00
68793;BME280;55778;54.346;10.210;2023-02-22T08:46:59;101158.75;;;6.76;100.00
68793;BME280;55778;54.346;10.210;2023-02-22T08:49:25;101160.47;;;6.77;100.00
68793;BME280;55778;54.346;10.210;2023-02-22T08:51:50;101161.41;;;6.89;100.00
68793;BME280;55778;54.346;10.210;2023-02-22T08:54:15;101148.56;;;6.80;100.00
68793;BME280;55778;54.346;10.210;2023-02-22T08:56:43;101150.53;;;6.78;100.00
68793;BME280;55778;54.346;10.210;2023-02-22T08:59:09;101151.56;;;6.88;100.00
68793;BME280;55778;54.346;10.210;2023-02-22T09:01:35;101146.16;;;6.88;100.00
68793;BME280;55778;54.346;10.210;2023-02-22T09:04:01;101146.91;;;6.90;100.00
68793;BME280;55778;54.346;10.210;2023-02-22T09:06:27;101142.66;;;6.98;100.00
68793;BME280;55778;54.346;10.210;2023-02-22T09:08:52;101141.22;;;7.05;100.00
68793;BME280;55778;54.346;10.210;2023-02-22T09:11:18;101143.88;;;7.18;100.00
68793;BME280;55778;54.346;10.210;2023-02-22T09:13:43;101139.53;;;7.15;100.00
68793;BME280;55778;54.346;10.210;2023-02-22T09:16:09;101136.25;;;7.23;100.00
68793;BME280;55778;54.346;10.210;2023-02-22T09:18:34;101140.63;;;7.36;100.00
68793;BME280;55778;54.346;10.210;2023-02-22T09:21:01;101126.50;;;7.44;100.00
68793;BME280;55778;54.346;10.210;2023-02-22T09:23:26;101128.97;;;7.47;100.00
68793;BME280;55778;54.346;10.210;2023-02-22T09:25:52;101129.03;;;7.58;100.00
68793;BME280;55778;54.346;10.210;2023-02-22T09:28:17;101129.44;;;7.75;100.00
68793;BME280;55778;54.346;10.210;2023-02-22T09:30:42;101132.28;;;7.74;100.00
68793;BME280;55778;54.346;10.210;2023-02-22T09:33:12;101124.03;;;7.86;100.00
68793;BME280;55778;54.346;10.210;2023-02-22T09:35:39;101128.88;;;7.94;100.00
68793;BME280;55778;54.346;10.210;2023-02-22T09:38:11;101122.84;;;8.01;100.00
68793;BME280;55778;54.346;10.210;2023-02-22T09:40:46;101115.09;;;8.08;100.00
68793;BME280;55778;54.346;10.210;2023-02-22T09:51:32;101106.94;;;8.19;100.00
68793;BME280;55778;54.346;10.210;2023-02-22T09:54:01;101101.63;;;8.17;100.00
68793;BME280;55778;54.346;10.210;2023-02-22T09:56:28;101101.38;;;8.20;100.00
68793;BME280;55778;54.346;10.210;2023-02-22T09:59:00;101099.91;;;8.16;100.00
68793;BME280;55778;54.346;10.210;2023-02-22T10:01:56;101099.41;;;8.11;100.00
68793;BME280;55778;54.346;10.210;2023-02-22T10:04:37;101105.72;;;8.12;100.00
68793;BME280;55778;54.346;10.210;2023-02-22T10:07:10;101096.44;;;8.14;100.00
68793;BME280;55778;54.346;10.210;2023-02-22T10:09:41;101098.59;;;8.22;100.00
68793;BME280;55778;54.346;10.210;2023-02-22T10:17:41;101098.84;;;8.41;100.00
68793;BME280;55778;54.346;10.210;2023-02-22T10:20:26;101099.97;;;8.50;100.00
68793;BME280;55778;54.346;10.210;2023-02-22T10:25:36;101097.34;;;8.59;100.00
68793;BME280;55778;54.346;10.210;2023-02-22T10:30:43;101097.97;;;8.74;100.00
68793;BME280;55778;54.346;10.210;2023-02-22T10:33:20;101088.09;;;8.62;100.00
68793;BME280;55778;54.346;10.210;2023-02-22T10:35:46;101091.06;;;8.59;100.00
68793;BME280;55778;54.346;10.210;2023-02-22T10:38:20;101092.53;;;8.52;100.00
68793;BME280;55778;54.346;10.210;2023-02-22T10:43:36;101088.09;;;8.62;100.00
68793;BME280;55778;54.346;10.210;2023-02-22T10:46:04;101087.72;;;8.66;100.00
68793;BME280;55778;54.346;10.210;2023-02-22T10:48:34;101088.44;;;8.79;100.00
68793;BME280;55778;54.346;10.210;2023-02-22T10:51:01;101089.88;;;8.94;100.00
68793;BME280;55778;54.346;10.210;2023-02-22T10:53:29;101078.56;;;9.10;99.86
68793;BME280;55778;54.346;10.210;2023-02-22T10:56:15;101075.28;;;9.06;99.39
68793;BME280;55778;54.346;10.210;2023-02-22T10:58:49;101069.47;;;9.00;99.25
68793;BME280;55778;54.346;10.210;2023-02-22T11:01:32;101068.56;;;9.10;99.07
68793;BME280;55778;54.346;10.210;2023-02-22T11:04:04;101062.88;;;9.13;98.97
68793;BME280;55778;54.346;10.210;2023-02-22T11:06:33;101058.50;;;9.22;98.87
68793;BME280;55778;54.346;10.210;2023-02-22T11:09:08;101049.72;;;9.29;97.67
68793;BME280;55778;54.346;10.210;2023-02-22T11:11:38;101047.78;;;9.41;97.35
68793;BME280;55778;54.346;10.210;2023-02-22T11:14:05;101045.97;;;9.30;97.73
68793;BME280;55778;54.346;10.210;2023-02-22T11:16:46;101047.00;;;9.50;98.19
68793;BME280;55778;54.346;10.210;2023-02-22T11:19:20;101032.22;;;9.63;95.73
68793;BME280;55778;54.346;10.210;2023-02-22T11:21:49;101028.75;;;9.82;94.95
68793;BME280;55778;54.346;10.210;2023-02-22T11:24:19;101028.53;;;9.94;94.59
68793;BME280;55778;54.346;10.210;2023-02-22T11:26:50;101035.31;;;9.79;94.01
68793;BME280;55778;54.346;10.210;2023-02-22T11:31:49;101036.66;;;9.44;95.87
68793;BME280;55778;54.346;10.210;2023-02-22T11:34:34;101033.00;;;9.34;96.71
68793;BME280;55778;54.346;10.210;2023-02-22T11:37:26;101033.09;;;9.43;97.05
68793;BME280;55778;54.346;10.210;2023-02-22T11:42:44;101029.09;;;9.47;96.87
68793;BME280;55778;54.346;10.210;2023-02-22T11:45:19;101016.50;;;9.46;97.22
68793;BME280;55778;54.346;10.210;2023-02-22T11:48:02;101015.88;;;9.43;96.94
68793;BME280;55778;54.346;10.210;2023-02-22T11:50:51;101015.66;;;9.55;96.83
68793;BME280;55778;54.346;10.210;2023-02-22T11:58:56;101007.38;;;9.36;97.39
68793;BME280;55778;54.346;10.210;2023-02-22T12:19:14;100999.34;;;9.55;95.60
68793;BME280;55778;54.346;10.210;2023-02-22T12:21:48;100983.91;;;9.56;96.22
68793;BME280;55778;54.346;10.210;2023-02-22T12:24:26;100984.09;;;9.64;96.07
68793;BME280;55778;54.346;10.210;2023-02-22T12:27:00;100991.53;;;9.62;95.47
68793;BME280;55778;54.346;10.210;2023-02-22T12:30:00;100984.94;;;9.64;96.18
68793;BME280;55778;54.346;10.210;2023-02-22T12:32:38;100980.97;;;9.68;95.39
68793;BME280;55778;54.346;10.210;2023-02-22T12:35:11;100984.63;;;9.58;95.92
68793;BME280;55778;54.346;10.210;2023-02-22T12:40:32;100977.88;;;9.52;96.48
68793;BME280;55778;54.346;10.210;2023-02-22T12:53:43;100983.59;;;9.49;96.22
68793;BME280;55778;54.346;10.210;2023-02-22T12:56:41;100973.69;;;9.48;95.55
68793;BME280;55778;54.346;10.210;2023-02-22T13:01:49;100970.00;;;9.49;96.20
68793;BME280;55778;54.346;10.210;2023-02-22T13:04:15;100972.72;;;9.49;95.28
68793;BME280;55778;54.346;10.210;2023-02-22T13:07:03;100968.25;;;9.48;95.47
68793;BME280;55778;54.346;10.210;2023-02-22T13:15:29;100965.78;;;9.45;95.36
68793;BME280;55778;54.346;10.210;2023-02-22T13:18:09;100959.91;;;9.40;95.62
68793;BME280;55778;54.346;10.210;2023-02-22T13:23:53;100949.75;;;9.42;95.80
68793;BME280;55778;54.346;10.210;2023-02-22T13:29:23;100954.97;;;9.55;95.54
68793;BME280;55778;54.346;10.210;2023-02-22T13:38:04;100946.78;;;9.75;93.91
68793;BME280;55778;54.346;10.210;2023-02-22T13:48:59;100940.09;;;9.59;95.11
68793;BME280;55778;54.346;10.210;2023-02-22T13:54:24;100940.72;;;9.72;94.15
68793;BME280;55778;54.346;10.210;2023-02-22T13:56:53;100938.97;;;9.61;93.34
68793;BME280;55778;54.346;10.210;2023-02-22T13:59:32;100936.97;;;9.63;94.09
68793;BME280;55778;54.346;10.210;2023-02-22T14:01:59;100928.34;;;9.58;94.01
68793;BME280;55778;54.346;10.210;2023-02-22T14:07:01;100929.63;;;9.54;94.27
68793;BME280;55778;54.346;10.210;2023-02-22T14:10:02;100933.16;;;9.45;94.89
68793;BME280;55778;54.346;10.210;2023-02-22T14:15:12;100927.75;;;9.25;95.21
68793;BME280;55778;54.346;10.210;2023-02-22T14:17:43;100931.47;;;9.24;96.11
68793;BME280;55778;54.346;10.210;2023-02-22T14:22:47;100932.72;;;9.40;95.50
68793;BME280;55778;54.346;10.210;2023-02-22T14:25:38;100927.81;;;9.34;95.95
68793;BME280;55778;54.346;10.210;2023-02-22T14:28:07;100928.50;;;9.36;95.76
68793;BME280;55778;54.346;10.210;2023-02-22T14:30:36;100922.38;;;9.34;95.96
68793;BME280;55778;54.346;10.210;2023-02-22T14:33:13;100918.78;;;9.34;95.65
68793;BME280;55778;54.346;10.210;2023-02-22T14:35:49;100906.91;;;9.35;95.93
68793;BME280;55778;54.346;10.210;2023-02-22T14:38:16;100912.28;;;9.25;95.91
68793;BME280;55778;54.346;10.210;2023-02-22T14:40:46;100906.31;;;9.31;96.22
68793;BME280;55778;54.346;10.210;2023-02-22T14:43:17;100909.03;;;9.31;95.59
68793;BME280;55778;54.346;10.210;2023-02-22T14:45:57;100909.97;;;9.21;96.29
68793;BME280;55778;54.346;10.210;2023-02-22T14:48:34;100901.34;;;9.16;96.76
68793;BME280;55778;54.346;10.210;2023-02-22T14:53:58;100899.28;;;9.29;96.79
68793;BME280;55778;54.346;10.210;2023-02-22T14:59:25;100890.94;;;9.21;96.87
68793;BME280;55778;54.346;10.210;2023-02-22T15:02:11;100894.63;;;9.20;96.91
68793;BME280;55778;54.346;10.210;2023-02-22T15:04:37;100902.66;;;9.21;96.86
68793;BME280;55778;54.346;10.210;2023-02-22T15:07:30;100895.63;;;9.19;96.92
68793;BME280;55778;54.346;10.210;2023-02-22T15:10:19;100879.72;;;9.14;96.79
68793;BME280;55778;54.346;10.210;2023-02-22T15:12:52;100887.31;;;9.11;97.12
68793;BME280;55778;54.346;10.210;2023-02-22T15:15:21;100883.97;;;9.07;97.60
68793;BME280;55778;54.346;10.210;2023-02-22T15:17:56;100873.91;;;8.98;97.96
68793;BME280;55778;54.346;10.210;2023-02-22T15:20:23;100886.50;;;8.99;98.07
68793;BME280;55778;54.346;10.210;2023-02-22T15:22:50;100883.34;;;8.94;98.53
68793;BME280;55778;54.346;10.210;2023-02-22T15:25:23;100883.47;;;8.93;98.37
68793;BME280;55778;54.346;10.210;2023-02-22T15:27:49;100889.47;;;8.96;98.42